MAI212 GQNO-GOBD
Flight info
| Callsign | MAI212 |
|---|---|
| Flight time | N/A |
| Altitude | 30000 |
| Route | DCT AMSEP DCT ARDOS DCT VISPA DCT ARBEN DCT SAKLI SAKLI1A |
| Aircraft | B38M/M-SDE1FGHILORVWXY/HB1 |
Departure
| Time | 2026-04-24 16:32 |
|---|---|
| Airport | Nouakchott–Oumtounsy International Airport (GQNO) |
Arrival
| Time | N/A |
|---|---|
| Airport | Blaise Diagne International Airport (GOBD) |
| Time | Latitude | Longitude | Altitude | Speed | Heading |
|---|---|---|---|---|---|
| 2026-04-24 15:59 | 18.30925 | -15.96452 | 9 ft | 0 kts | 53° |
| 2026-04-24 16:03 | 18.30924 | -15.96452 | 9 ft | 0 kts | 53° |
| 2026-04-24 16:06 | 18.30924 | -15.96453 | 9 ft | 0 kts | 53° |
| 2026-04-24 16:19 | 18.30924 | -15.96454 | 9 ft | 0 kts | 53° |
| 2026-04-24 16:20 | 18.30899 | -15.96491 | 10 ft | 4 kts | 59° |
| 2026-04-24 16:20 | 18.30875 | -15.96541 | 13 ft | 4 kts | 67° |
| 2026-04-24 16:20 | 18.30865 | -15.96568 | 12 ft | 4 kts | 71° |
| 2026-04-24 16:21 | 18.30847 | -15.96618 | 15 ft | 1 kts | 61° |
| 2026-04-24 16:21 | 18.30847 | -15.96619 | 15 ft | 0 kts | 61° |
| 2026-04-24 16:22 | 18.30849 | -15.96616 | 13 ft | 2 kts | 61° |
| 2026-04-24 16:23 | 18.30851 | -15.96612 | 12 ft | 0 kts | 61° |
| 2026-04-24 16:23 | 18.30850 | -15.96612 | 12 ft | 0 kts | 61° |
| 2026-04-24 16:24 | 18.30850 | -15.96613 | 12 ft | 0 kts | 61° |
| 2026-04-24 16:24 | 18.30851 | -15.96611 | 12 ft | 1 kts | 61° |
| 2026-04-24 16:25 | 18.30859 | -15.96599 | 12 ft | 3 kts | 57° |
| 2026-04-24 16:25 | 18.30870 | -15.96571 | 11 ft | 5 kts | 85° |
| 2026-04-24 16:25 | 18.30846 | -15.96542 | 11 ft | 7 kts | 147° |
| 2026-04-24 16:26 | 18.30727 | -15.96467 | 11 ft | 12 kts | 148° |
| 2026-04-24 16:26 | 18.30656 | -15.96420 | 14 ft | 12 kts | 147° |
| 2026-04-24 16:26 | 18.30539 | -15.96454 | 14 ft | 10 kts | 180° |
| 2026-04-24 16:27 | 18.30469 | -15.96426 | 15 ft | 12 kts | 148° |
| 2026-04-24 16:27 | 18.30392 | -15.96376 | 15 ft | 14 kts | 148° |
| 2026-04-24 16:27 | 18.30301 | -15.96317 | 18 ft | 17 kts | 148° |
| 2026-04-24 16:27 | 18.30192 | -15.96244 | 18 ft | 21 kts | 148° |
| 2026-04-24 16:28 | 18.30050 | -15.96149 | 17 ft | 27 kts | 147° |
| 2026-04-24 16:28 | 18.29878 | -15.96034 | 13 ft | 33 kts | 147° |
| 2026-04-24 16:28 | 18.29597 | -15.95854 | 10 ft | 31 kts | 149° |
| 2026-04-24 16:29 | 18.29414 | -15.95737 | 13 ft | 30 kts | 148° |
| 2026-04-24 16:29 | 18.29241 | -15.95625 | 14 ft | 27 kts | 148° |
| 2026-04-24 16:29 | 18.29096 | -15.95591 | 15 ft | 9 kts | 241° |
| 2026-04-24 16:30 | 18.29090 | -15.95703 | 13 ft | 0 kts | 329° |
| 2026-04-24 16:31 | 18.29211 | -15.95781 | 13 ft | 54 kts | 328° |
| 2026-04-24 16:31 | 18.29728 | -15.96116 | 9 ft | 117 kts | 328° |
| 2026-04-24 16:31 | 18.30566 | -15.96656 | 64 ft | 159 kts | 329° |
| 2026-04-24 16:32 | 18.31210 | -15.97046 | 463 ft | 162 kts | 329° |
| 2026-04-24 16:32 | 18.32598 | -15.97836 | 1217 ft | 178 kts | 332° |
| 2026-04-24 16:32 | 18.33762 | -15.98500 | 1524 ft | 206 kts | 332° |
| 2026-04-24 16:32 | 18.35076 | -15.99241 | 2104 ft | 216 kts | 332° |
| 2026-04-24 16:33 | 18.36441 | -15.99979 | 2671 ft | 231 kts | 346° |
| 2026-04-24 16:33 | 18.38053 | -15.99909 | 3163 ft | 247 kts | 22° |
| 2026-04-24 16:33 | 18.39395 | -15.98694 | 3800 ft | 263 kts | 58° |
| 2026-04-24 16:33 | 18.39911 | -15.96817 | 4431 ft | 277 kts | 88° |
| 2026-04-24 16:34 | 18.39419 | -15.94853 | 5055 ft | 285 kts | 124° |
| 2026-04-24 16:34 | 18.38060 | -15.93364 | 5694 ft | 290 kts | 142° |
| 2026-04-24 16:34 | 18.36589 | -15.91875 | 6398 ft | 295 kts | 137° |
| 2026-04-24 16:34 | 18.35152 | -15.90319 | 7122 ft | 298 kts | 137° |
| 2026-04-24 16:35 | 18.33691 | -15.88720 | 7890 ft | 300 kts | 136° |
| 2026-04-24 16:35 | 18.32259 | -15.87146 | 8631 ft | 303 kts | 137° |
| 2026-04-24 16:35 | 18.30798 | -15.85536 | 9405 ft | 305 kts | 137° |
| 2026-04-24 16:35 | 18.29324 | -15.83915 | 10119 ft | 310 kts | 137° |
| 2026-04-24 16:36 | 18.27788 | -15.82230 | 10477 ft | 329 kts | 137° |
| 2026-04-24 16:36 | 18.25962 | -15.80745 | 10872 ft | 335 kts | 158° |
| 2026-04-24 16:36 | 18.23822 | -15.79712 | 11453 ft | 343 kts | 158° |
| 2026-04-24 16:36 | 18.21658 | -15.78645 | 12257 ft | 343 kts | 159° |
| 2026-04-24 16:37 | 18.19496 | -15.77617 | 13009 ft | 345 kts | 164° |
| 2026-04-24 16:37 | 18.17169 | -15.77193 | 13802 ft | 339 kts | 185° |
| 2026-04-24 16:37 | 18.15578 | -15.77335 | 14230 ft | 341 kts | 189° |
| 2026-04-24 16:37 | 18.12415 | -15.77691 | 15097 ft | 348 kts | 189° |
| 2026-04-24 16:38 | 18.10810 | -15.77885 | 15528 ft | 351 kts | 190° |
| 2026-04-24 16:38 | 18.08371 | -15.78192 | 16178 ft | 356 kts | 190° |
| 2026-04-24 16:38 | 18.05897 | -15.78516 | 16813 ft | 361 kts | 191° |
| 2026-04-24 16:38 | 18.03389 | -15.78850 | 17431 ft | 365 kts | 191° |
| 2026-04-24 16:39 | 18.00850 | -15.79192 | 18024 ft | 370 kts | 191° |
| 2026-04-24 16:39 | 17.98274 | -15.79541 | 18545 ft | 375 kts | 191° |
| 2026-04-24 16:39 | 17.95673 | -15.79893 | 19075 ft | 379 kts | 191° |
| 2026-04-24 16:39 | 17.93051 | -15.80248 | 19587 ft | 382 kts | 191° |
| 2026-04-24 16:40 | 17.90396 | -15.80607 | 20104 ft | 386 kts | 191° |
| 2026-04-24 16:40 | 17.87720 | -15.80969 | 20612 ft | 390 kts | 191° |
| 2026-04-24 16:40 | 17.85012 | -15.81335 | 21117 ft | 393 kts | 191° |
| 2026-04-24 16:40 | 17.82289 | -15.81703 | 21604 ft | 397 kts | 191° |
| 2026-04-24 16:41 | 17.79534 | -15.82075 | 22095 ft | 401 kts | 191° |
| 2026-04-24 16:41 | 17.76756 | -15.82450 | 22582 ft | 404 kts | 191° |
| 2026-04-24 16:41 | 17.73952 | -15.82829 | 23016 ft | 409 kts | 191° |
| 2026-04-24 16:41 | 17.71114 | -15.83212 | 23484 ft | 412 kts | 191° |
| 2026-04-24 16:42 | 17.68341 | -15.83902 | 23874 ft | 408 kts | 206° |
| 2026-04-24 16:42 | 17.65710 | -15.85030 | 24224 ft | 412 kts | 205° |
| 2026-04-24 16:42 | 17.63062 | -15.86106 | 24635 ft | 413 kts | 206° |
| 2026-04-24 16:42 | 17.60377 | -15.87217 | 25035 ft | 416 kts | 207° |
| 2026-04-24 16:43 | 17.57685 | -15.88344 | 25429 ft | 418 kts | 207° |
| 2026-04-24 16:43 | 17.54980 | -15.89483 | 25829 ft | 420 kts | 207° |
| 2026-04-24 16:43 | 17.52267 | -15.90628 | 26220 ft | 422 kts | 208° |
| 2026-04-24 16:43 | 17.49532 | -15.91783 | 26603 ft | 424 kts | 208° |
| 2026-04-24 16:44 | 17.46788 | -15.92940 | 26993 ft | 426 kts | 208° |
| 2026-04-24 16:44 | 17.44028 | -15.94105 | 27365 ft | 428 kts | 208° |
| 2026-04-24 16:44 | 17.41257 | -15.95274 | 27735 ft | 430 kts | 209° |
| 2026-04-24 16:44 | 17.38474 | -15.96447 | 28080 ft | 432 kts | 209° |
| 2026-04-24 16:45 | 17.35672 | -15.97629 | 28437 ft | 434 kts | 209° |
| 2026-04-24 16:45 | 17.32865 | -15.98811 | 28781 ft | 436 kts | 210° |
| 2026-04-24 16:45 | 17.30043 | -16.00000 | 29104 ft | 438 kts | 210° |
| 2026-04-24 16:45 | 17.27206 | -16.01195 | 29413 ft | 441 kts | 210° |
| 2026-04-24 16:46 | 17.24354 | -16.02396 | 29703 ft | 443 kts | 210° |
| 2026-04-24 16:46 | 17.21480 | -16.03605 | 29880 ft | 446 kts | 210° |
| 2026-04-24 16:46 | 17.15680 | -16.06046 | 29864 ft | 453 kts | 210° |
| 2026-04-24 16:47 | 17.09851 | -16.08494 | 29869 ft | 453 kts | 210° |
| 2026-04-24 16:47 | 17.03987 | -16.10958 | 29873 ft | 455 kts | 210° |
| 2026-04-24 16:48 | 16.98108 | -16.13425 | 29870 ft | 455 kts | 210° |
| 2026-04-24 16:48 | 16.92227 | -16.15892 | 29871 ft | 455 kts | 210° |
| 2026-04-24 16:49 | 16.86354 | -16.18354 | 29871 ft | 455 kts | 210° |
| 2026-04-24 16:49 | 16.80484 | -16.20813 | 29881 ft | 455 kts | 210° |
| 2026-04-24 16:50 | 16.74604 | -16.23274 | 29882 ft | 455 kts | 210° |
| 2026-04-24 16:50 | 16.68751 | -16.25723 | 29878 ft | 458 kts | 209° |
| 2026-04-24 16:51 | 16.62836 | -16.28195 | 29885 ft | 458 kts | 209° |
| 2026-04-24 16:51 | 16.56922 | -16.30666 | 29882 ft | 458 kts | 209° |
| 2026-04-24 16:52 | 16.51011 | -16.33134 | 29869 ft | 458 kts | 209° |
| 2026-04-24 16:52 | 16.45096 | -16.35602 | 29891 ft | 458 kts | 209° |
| 2026-04-24 16:53 | 16.38873 | -16.37358 | 29893 ft | 467 kts | 200° |
| 2026-04-24 16:53 | 16.32525 | -16.38915 | 29892 ft | 469 kts | 200° |
| 2026-04-24 16:54 | 16.26178 | -16.40481 | 29888 ft | 469 kts | 200° |
| 2026-04-24 16:54 | 16.19826 | -16.42046 | 29878 ft | 469 kts | 200° |
| 2026-04-24 16:55 | 16.13510 | -16.43602 | 29891 ft | 469 kts | 200° |
| 2026-04-24 16:55 | 16.07165 | -16.45164 | 29881 ft | 469 kts | 200° |
| 2026-04-24 16:56 | 16.04138 | -16.46266 | 29852 ft | 454 kts | 215° |
| 2026-04-24 16:56 | 16.01385 | -16.47885 | 29872 ft | 457 kts | 214° |
| 2026-04-24 16:56 | 15.95741 | -16.50961 | 29890 ft | 458 kts | 215° |
| 2026-04-24 16:57 | 15.90144 | -16.54103 | 29885 ft | 457 kts | 216° |
| 2026-04-24 16:57 | 15.84559 | -16.57268 | 29887 ft | 457 kts | 216° |
| 2026-04-24 16:58 | 15.81799 | -16.58830 | 29876 ft | 444 kts | 216° |
| 2026-04-24 16:58 | 15.79129 | -16.60342 | 29786 ft | 429 kts | 216° |
| 2026-04-24 16:58 | 15.76527 | -16.61816 | 29362 ft | 424 kts | 216° |
| 2026-04-24 16:58 | 15.73948 | -16.63279 | 28793 ft | 423 kts | 216° |
| 2026-04-24 16:59 | 15.71405 | -16.64719 | 28265 ft | 421 kts | 215° |
| 2026-04-24 16:59 | 15.68847 | -16.66166 | 27754 ft | 418 kts | 215° |
| 2026-04-24 16:59 | 15.63771 | -16.69037 | 26799 ft | 413 kts | 214° |
| 2026-04-24 17:00 | 15.61253 | -16.70461 | 26331 ft | 411 kts | 214° |
| 2026-04-24 17:00 | 15.56248 | -16.73290 | 25382 ft | 408 kts | 213° |
| 2026-04-24 17:00 | 15.53753 | -16.74700 | 24908 ft | 407 kts | 213° |
| 2026-04-24 17:01 | 15.48791 | -16.77503 | 23981 ft | 405 kts | 213° |
| 2026-04-24 17:01 | 15.46307 | -16.78905 | 23519 ft | 405 kts | 212° |
| 2026-04-24 17:02 | 15.41368 | -16.81691 | 22476 ft | 402 kts | 212° |
| 2026-04-24 17:02 | 15.38919 | -16.83072 | 22021 ft | 399 kts | 212° |
| 2026-04-24 17:02 | 15.36484 | -16.84445 | 21563 ft | 396 kts | 212° |
| 2026-04-24 17:02 | 15.34101 | -16.85789 | 21109 ft | 394 kts | 212° |
| 2026-04-24 17:03 | 15.29075 | -16.87974 | 20136 ft | 396 kts | 196° |
| 2026-04-24 17:03 | 15.26404 | -16.88610 | 19778 ft | 392 kts | 197° |
| 2026-04-24 17:03 | 15.23756 | -16.89255 | 19368 ft | 389 kts | 197° |
| 2026-04-24 17:04 | 15.21130 | -16.89898 | 18949 ft | 387 kts | 197° |
| 2026-04-24 17:04 | 15.15906 | -16.91178 | 18121 ft | 383 kts | 197° |
| 2026-04-24 17:04 | 15.13316 | -16.91812 | 17656 ft | 381 kts | 197° |
| 2026-04-24 17:05 | 15.10745 | -16.92442 | 17233 ft | 378 kts | 196° |
| 2026-04-24 17:05 | 15.08198 | -16.93065 | 16825 ft | 374 kts | 197° |
| 2026-04-24 17:05 | 15.03177 | -16.94295 | 16041 ft | 367 kts | 197° |
| 2026-04-24 17:06 | 15.00707 | -16.94900 | 15657 ft | 364 kts | 195° |
| 2026-04-24 17:06 | 14.95829 | -16.96091 | 14901 ft | 356 kts | 194° |
| 2026-04-24 17:06 | 14.93423 | -16.96679 | 14529 ft | 353 kts | 194° |
| 2026-04-24 17:07 | 14.91842 | -16.97054 | 14274 ft | 351 kts | 191° |
| 2026-04-24 17:07 | 14.88585 | -16.97186 | 13746 ft | 348 kts | 179° |
| 2026-04-24 17:07 | 14.83787 | -16.97124 | 12993 ft | 341 kts | 180° |
| 2026-04-24 17:08 | 14.79130 | -16.97079 | 12346 ft | 332 kts | 180° |
| 2026-04-24 17:08 | 14.76837 | -16.97059 | 12044 ft | 327 kts | 180° |
| 2026-04-24 17:08 | 14.74569 | -16.97039 | 11748 ft | 324 kts | 180° |
| 2026-04-24 17:09 | 14.70112 | -16.96999 | 11175 ft | 316 kts | 180° |
| 2026-04-24 17:09 | 14.65768 | -16.96960 | 10599 ft | 308 kts | 180° |
| 2026-04-24 17:10 | 14.64353 | -16.96948 | 10421 ft | 306 kts | 179° |
| 2026-04-24 17:10 | 14.57339 | -16.96887 | 9423 ft | 297 kts | 179° |
| 2026-04-24 17:11 | 14.51252 | -16.96832 | 8577 ft | 289 kts | 179° |
| 2026-04-24 17:12 | 14.41294 | -16.96800 | 7194 ft | 280 kts | 190° |